createdAt,value
2018-07-21T09:03:01.828Z,11.00
2018-07-21T09:05:29.731Z,8.07
2018-07-21T09:07:59.432Z,9.00
2018-07-21T09:10:28.496Z,11.20
2018-07-21T09:12:57.849Z,10.67
2018-07-21T09:15:26.013Z,10.60
2018-07-21T09:17:54.183Z,8.50
2018-07-21T09:20:22.415Z,11.10
2018-07-21T09:22:50.572Z,9.70
2018-07-21T09:25:19.887Z,10.97
2018-07-21T09:27:48.472Z,8.97
2018-07-21T09:30:17.255Z,10.97
2018-07-21T09:32:45.433Z,11.37
2018-07-21T09:35:13.824Z,10.63
2018-07-21T09:37:42.093Z,8.93
2018-07-21T09:40:10.352Z,9.50
2018-07-21T09:42:38.496Z,8.90
2018-07-21T09:45:06.768Z,11.40
2018-07-21T09:47:35.020Z,9.80
2018-07-21T09:50:03.201Z,9.10
2018-07-21T09:52:31.372Z,9.30
2018-07-21T09:54:59.556Z,9.37
2018-07-21T09:57:27.712Z,9.97
2018-07-21T09:59:56.576Z,8.83
2018-07-21T10:02:24.752Z,9.77
2018-07-21T10:04:52.940Z,8.03
2018-07-21T10:07:21.097Z,9.00
2018-07-21T10:09:49.260Z,9.00
2018-07-21T10:12:17.470Z,8.17
2018-07-21T10:14:45.616Z,8.80
2018-07-21T10:17:16.698Z,11.00
2018-07-21T10:19:44.874Z,8.53
2018-07-21T10:22:13.073Z,9.83
2018-07-21T10:24:46.740Z,10.60
2018-07-21T10:27:19.397Z,8.57
2018-07-21T10:29:48.763Z,10.07
2018-07-21T10:32:16.948Z,8.60
2018-07-21T10:34:44.920Z,11.40
2018-07-21T10:37:13.207Z,9.17
2018-07-21T10:39:41.364Z,9.33
2018-07-21T10:42:09.975Z,9.47
2018-07-21T10:44:38.247Z,9.83
2018-07-21T10:47:10.429Z,9.43
2018-07-21T10:49:39.225Z,9.47
2018-07-21T10:52:11.320Z,11.60
2018-07-21T10:54:43.635Z,8.98
2018-07-21T10:57:11.814Z,9.25
2018-07-21T10:59:41.527Z,9.33
2018-07-21T11:02:09.700Z,9.43
2018-07-21T11:04:38.028Z,9.90
2018-07-21T11:07:06.408Z,9.15
2018-07-21T11:09:39.344Z,9.93
2018-07-21T11:12:07.695Z,10.18
2018-07-21T11:14:35.872Z,9.28
2018-07-21T11:17:04.024Z,9.10
2018-07-21T11:19:32.196Z,9.08
2018-07-21T11:22:00.365Z,8.63
2018-07-21T11:24:28.529Z,10.75
2018-07-21T11:26:56.667Z,9.48
2018-07-21T11:29:24.852Z,9.98
2018-07-21T11:31:53.074Z,9.50
2018-07-21T11:34:21.244Z,9.78
2018-07-21T11:36:49.416Z,9.23
2018-07-21T11:39:17.716Z,9.85
2018-07-21T11:41:45.876Z,8.73
2018-07-21T11:44:15.010Z,8.63
2018-07-21T11:46:43.276Z,9.00
2018-07-21T11:49:11.477Z,8.98
2018-07-21T11:51:39.563Z,8.50
2018-07-21T11:54:07.754Z,9.83
2018-07-21T11:56:35.962Z,8.70
2018-07-21T11:59:04.165Z,8.03
2018-07-21T12:01:32.372Z,8.28
2018-07-21T12:04:00.351Z,8.18
2018-07-21T12:06:28.580Z,8.48
2018-07-21T12:08:56.778Z,7.37
2018-07-21T12:11:24.968Z,7.05
2018-07-21T12:13:53.196Z,6.60
2018-07-21T12:16:21.380Z,6.35
2018-07-21T12:18:49.949Z,7.60
2018-07-21T12:21:18.372Z,6.47
2018-07-21T12:23:46.565Z,7.00
2018-07-21T12:26:21.530Z,7.00
2018-07-21T12:28:49.704Z,6.33
2018-07-21T12:31:17.921Z,6.30
2018-07-21T12:33:46.405Z,6.60
2018-07-21T12:36:17.375Z,6.05
2018-07-21T12:38:46.719Z,6.47
2018-07-21T12:41:14.692Z,8.23
2018-07-21T12:43:43.792Z,6.70
2018-07-21T12:46:18.435Z,7.03
2018-07-21T12:48:46.709Z,6.47
2018-07-21T12:51:14.873Z,6.90
2018-07-21T12:53:44.532Z,7.12
2018-07-21T12:56:12.727Z,6.35
2018-07-21T12:58:40.900Z,6.22
2018-07-21T13:01:09.076Z,6.20
2018-07-21T13:03:45.727Z,6.20
2018-07-21T13:06:15.086Z,6.47
2018-07-21T13:08:43.991Z,5.72
2018-07-21T13:11:16.692Z,6.33
2018-07-21T13:13:44.916Z,6.08
2018-07-21T13:16:13.078Z,5.67
2018-07-21T13:18:44.875Z,6.53
2018-07-21T13:21:14.593Z,5.65
2018-07-21T13:23:44.217Z,5.55
2018-07-21T13:26:13.800Z,6.30
2018-07-21T13:28:42.928Z,6.10
2018-07-21T13:31:11.104Z,6.00
2018-07-21T13:33:39.276Z,6.17
2018-07-21T13:36:07.459Z,6.17
2018-07-21T13:38:35.607Z,6.53
2018-07-21T13:41:03.782Z,6.28
2018-07-21T13:43:31.944Z,6.50
2018-07-21T13:46:00.148Z,6.62
2018-07-21T13:48:28.308Z,6.20
2018-07-21T13:50:56.479Z,6.30
2018-07-21T13:53:27.284Z,7.25
2018-07-21T13:55:55.485Z,6.72
2018-07-21T13:58:23.796Z,6.87
2018-07-21T14:00:51.956Z,6.25
2018-07-21T14:03:20.132Z,6.50
2018-07-21T14:05:48.293Z,6.87
2018-07-21T14:08:17.244Z,6.43
2018-07-21T14:10:45.672Z,6.87
2018-07-21T14:13:13.824Z,7.60
2018-07-21T14:15:41.995Z,7.15
2018-07-21T14:18:12.556Z,6.73
2018-07-21T14:20:40.739Z,7.17
2018-07-21T14:23:13.864Z,7.20
2018-07-21T14:25:46.907Z,8.03
2018-07-21T14:28:15.056Z,7.78
2018-07-21T14:30:43.245Z,7.00
2018-07-21T14:33:11.425Z,7.70
2018-07-21T14:35:39.580Z,7.80
2018-07-21T14:38:07.731Z,7.33
2018-07-21T14:40:35.900Z,7.55
2018-07-21T14:43:04.068Z,7.03
2018-07-21T14:45:32.228Z,6.95
2018-07-21T14:48:00.400Z,6.35
2018-07-21T14:50:28.552Z,6.80
2018-07-21T14:52:56.703Z,6.47
2018-07-21T14:55:24.912Z,6.37
2018-07-21T14:57:53.065Z,6.45
2018-07-21T15:00:21.240Z,6.75
2018-07-21T15:02:49.450Z,6.95
2018-07-21T15:05:17.656Z,6.53
2018-07-21T15:07:45.804Z,6.67
2018-07-21T15:10:14.265Z,6.90
2018-07-21T15:12:42.428Z,6.42
2018-07-21T15:15:10.576Z,6.90
2018-07-21T15:17:38.793Z,6.45
2018-07-21T15:20:07.413Z,7.43
2018-07-21T15:22:35.571Z,7.20
2018-07-21T15:25:04.411Z,7.37
2018-07-21T15:27:32.575Z,6.13
2018-07-21T15:30:00.747Z,6.60
2018-07-21T15:32:28.948Z,6.77
2018-07-21T15:34:57.104Z,6.43
2018-07-21T15:37:25.267Z,6.97
2018-07-21T15:39:53.490Z,6.50
2018-07-21T15:42:21.613Z,7.13
2018-07-21T15:44:49.763Z,7.30
2018-07-21T15:47:17.946Z,8.40
